Time;durP1;ratioP1;P1;durP2;ratioP2;P2;SDS_P1;SDS_P2;PMS_P1;PMS_P2;Temp;Humidity;BMP_temperature;BMP_pressure;BME280_temperature;BME280_humidity;BME280_pressure;Samples;Min_cycle;Max_cycle;Signal;HPM_P1;HPM_P2
2022/03/14 00:01:45;;;;;;;10.38;6.03;;;;;;;8.57;47.24;102065.78;4993160;28;20516;-73
2022/03/14 00:04:31;;;;;;;15.57;7.53;;;;;;;8.63;47.47;102058.47;4993399;28;20512;-73
2022/03/14 00:07:15;;;;;;;9.23;6.63;;;;;;;8.64;47.10;102054.66;4993029;28;20513;-70
2022/03/14 00:10:05;;;;;;;12.20;6.78;;;;;;;8.64;47.44;102065.50;4993373;28;20049;-75
2022/03/14 00:12:56;;;;;;;12.82;7.55;;;;;;;8.76;47.05;102076.91;4993086;28;20054;-75
2022/03/14 00:15:41;;;;;;;12.20;7.93;;;;;;;8.83;46.43;102075.56;4992878;28;20425;-76
2022/03/14 00:18:32;;;;;;;15.50;8.98;;;;;;;8.77;46.48;102071.22;4993012;28;20053;-75
2022/03/14 00:21:20;;;;;;;13.73;8.15;;;;;;;8.73;46.74;102064.72;4992654;28;20061;-75
2022/03/14 00:24:10;;;;;;;11.93;7.45;;;;;;;8.75;46.50;102069.84;4998571;28;20053;-75
2022/03/14 00:26:56;;;;;;;10.20;7.32;;;;;;;8.80;46.47;102084.25;5027478;23;20057;-83
2022/03/14 00:29:41;;;;;;;13.27;8.90;;;;;;;8.82;46.62;102089.41;5015937;28;20052;-83
2022/03/14 00:32:26;;;;;;;12.52;7.00;;;;;;;8.68;47.18;102082.88;5035781;28;20517;-85
2022/03/14 00:35:11;;;;;;;8.95;6.30;;;;;;;8.73;46.89;102085.59;5015914;28;20064;-83
2022/03/14 00:37:57;;;;;;;10.95;7.78;;;;;;;8.69;47.03;102079.88;5014957;28;20058;-83
2022/03/14 00:40:42;;;;;;;32.90;8.05;;;;;;;8.69;47.21;102081.78;5021102;28;20529;-85
2022/03/14 00:43:28;;;;;;;9.38;6.45;;;;;;;8.67;47.43;102078.53;5015499;28;20048;-85
2022/03/14 00:46:17;;;;;;;18.35;8.10;;;;;;;8.69;47.04;102076.34;5017703;28;20044;-85
2022/03/14 00:49:02;;;;;;;13.45;8.57;;;;;;;8.71;46.81;102076.91;5021548;28;20049;-85
2022/03/14 00:51:47;;;;;;;15.35;7.57;;;;;;;8.75;46.83;102084.22;5018232;28;20045;-85
2022/03/14 00:54:32;;;;;;;12.05;7.57;;;;;;;8.75;46.82;102086.13;5022153;28;20073;-85
2022/03/14 00:57:17;;;;;;;19.45;8.23;;;;;;;8.76;46.52;102080.44;5022185;28;20065;-84
2022/03/14 01:00:04;;;;;;;10.98;7.40;;;;;;;8.80;46.44;102083.41;5021715;28;20045;-85
2022/03/14 01:02:50;;;;;;;14.65;9.25;;;;;;;8.88;46.54;102085.63;5021417;28;20061;-84
2022/03/14 01:05:35;;;;;;;12.38;7.72;;;;;;;8.78;46.92;102089.13;5017891;28;20049;-81
2022/03/14 01:08:25;;;;;;;13.55;9.05;;;;;;;8.79;46.38;102089.91;5015145;28;20696;-80
2022/03/14 01:11:10;;;;;;;8.02;5.47;;;;;;;9.03;45.71;102085.63;5019651;28;20050;-81
2022/03/14 01:13:55;;;;;;;9.65;5.78;;;;;;;8.85;46.57;102088.84;5017481;28;20049;-81
2022/03/14 01:16:40;;;;;;;11.02;6.93;;;;;;;8.92;45.94;102089.41;5015831;28;20052;-82
2022/03/14 01:19:26;;;;;;;12.13;6.70;;;;;;;8.83;45.99;102080.19;5014820;28;20049;-81
2022/03/14 01:22:10;;;;;;;11.38;4.93;;;;;;;8.88;46.05;102077.47;5021042;28;20057;-82
2022/03/14 01:24:55;;;;;;;14.77;7.95;;;;;;;8.94;46.18;102087.22;5015524;28;20048;-82
2022/03/14 01:27:40;;;;;;;12.90;5.97;;;;;;;8.85;46.42;102078.81;5023062;28;20061;-83
2022/03/14 01:30:25;;;;;;;8.82;5.65;;;;;;;8.87;46.42;102086.69;5018409;28;20048;-82
2022/03/14 01:33:11;;;;;;;10.73;7.18;;;;;;;8.88;46.89;102096.47;5017257;28;20048;-82
2022/03/14 01:35:56;;;;;;;14.07;8.93;;;;;;;8.56;48.51;102097.50;5015004;28;20057;-81
2022/03/14 01:38:40;;;;;;;15.93;9.55;;;;;;;8.44;48.18;102096.91;5015250;28;20049;-81
2022/03/14 01:41:26;;;;;;;19.15;8.82;;;;;;;8.29;49.47;102093.31;5023688;28;20053;-82
2022/03/14 01:44:12;;;;;;;10.57;7.55;;;;;;;8.35;49.45;102095.81;5024362;28;20520;-82
2022/03/14 01:47:00;;;;;;;13.32;8.02;;;;;;;8.02;49.71;102099.72;5017789;28;20073;-84
2022/03/14 01:49:46;;;;;;;21.42;9.02;;;;;;;8.40;48.41;102103.94;5017707;28;20045;-82
2022/03/14 01:52:31;;;;;;;13.52;8.07;;;;;;;8.48;48.91;102095.28;5018189;28;20049;-82
2022/03/14 01:55:18;;;;;;;18.38;8.45;;;;;;;8.53;48.01;102102.66;5022884;28;20414;-83
2022/03/14 01:58:03;;;;;;;19.10;9.07;;;;;;;8.35;48.66;102103.13;5023785;28;20418;-84
2022/03/14 02:00:48;;;;;;;14.73;7.90;;;;;;;8.24;49.18;102113.06;5023713;28;20053;-84
2022/03/14 02:03:33;;;;;;;9.55;6.13;;;;;;;8.17;49.29;102117.94;5024001;28;20058;-83
2022/03/14 02:06:18;;;;;;;8.73;6.07;;;;;;;8.19;49.70;102115.75;5020159;28;20049;-84
2022/03/14 02:09:03;;;;;;;11.65;7.63;;;;;;;8.12;50.15;102118.72;5018032;28;20053;-86
2022/03/14 02:12:12;;;;;;;10.60;5.97;;;;;;;8.02;50.18;102123.28;5024070;28;20044;-84
2022/03/14 02:14:58;;;;;;;12.57;8.73;;;;;;;7.90;50.70;102122.66;5017003;28;20422;-83
2022/03/14 02:17:43;;;;;;;12.50;7.70;;;;;;;7.83;50.35;102124.78;5017788;28;20399;-85
2022/03/14 02:20:28;;;;;;;9.15;5.70;;;;;;;7.64;51.35;102129.81;5018548;28;20529;-82
2022/03/14 02:23:13;;;;;;;9.02;6.10;;;;;;;7.77;50.91;102129.38;5023605;28;20064;-83
2022/03/14 02:25:58;;;;;;;9.05;5.25;;;;;;;7.84;50.35;102132.66;5019626;28;20052;-82
2022/03/14 02:28:42;;;;;;;9.13;7.32;;;;;;;7.74;51.15;102125.28;5023370;28;20052;-83
2022/03/14 02:31:27;;;;;;;7.82;6.03;;;;;;;7.95;50.95;102128.94;5018522;28;20045;-83
2022/03/14 02:34:11;;;;;;;9.97;6.30;;;;;;;7.96;50.06;102124.34;5016856;28;20517;-81
2022/03/14 02:36:56;;;;;;;7.63;5.28;;;;;;;8.15;48.99;102111.97;5017034;28;20279;-81
2022/03/14 02:39:42;;;;;;;7.28;4.93;;;;;;;8.27;48.17;102107.13;5017144;28;20596;-81
2022/03/14 02:42:26;;;;;;;8.82;6.13;;;;;;;8.13;48.54;102114.91;5017521;28;20052;-81
2022/03/14 02:45:12;;;;;;;7.78;5.68;;;;;;;8.04;49.27;102116.50;5017348;28;20049;-81
2022/03/14 02:47:56;;;;;;;11.40;7.43;;;;;;;8.03;49.49;102117.59;5022211;28;20056;-81
2022/03/14 02:50:42;;;;;;;10.93;5.57;;;;;;;8.06;48.94;102121.66;5017230;28;20049;-83
2022/03/14 02:53:27;;;;;;;14.68;7.88;;;;;;;8.09;49.13;102126.56;5023200;28;20049;-83
2022/03/14 02:56:11;;;;;;;15.95;8.60;;;;;;;8.01;50.15;102127.06;5016092;28;20049;-83
2022/03/14 02:58:56;;;;;;;13.27;8.07;;;;;;;7.99;49.64;102123.78;5017087;28;20065;-84
2022/03/14 03:01:41;;;;;;;9.73;6.38;;;;;;;8.08;50.01;102122.22;5023706;28;20076;-84
2022/03/14 03:04:26;;;;;;;11.55;6.43;;;;;;;8.01;49.93;102121.66;5022856;28;20056;-83
2022/03/14 03:07:11;;;;;;;19.00;6.88;;;;;;;7.99;50.49;102134.63;5016944;28;20053;-84
2022/03/14 03:09:55;;;;;;;13.57;6.50;;;;;;;7.86;50.71;102140.53;5016752;28;20056;-84
2022/03/14 03:12:41;;;;;;;15.38;7.95;;;;;;;7.89;51.46;102129.16;5023086;28;20053;-86
2022/03/14 03:15:26;;;;;;;14.70;6.75;;;;;;;7.89;51.14;102134.56;5018460;28;20117;-84
2022/03/14 03:18:12;;;;;;;8.45;6.00;;;;;;;7.87;50.93;102142.16;5023320;28;20057;-84
2022/03/14 03:20:56;;;;;;;7.93;6.35;;;;;;;7.80;50.47;102146.97;5022836;28;20053;-83
2022/03/14 03:23:41;;;;;;;13.07;7.87;;;;;;;7.64;51.34;102143.34;5023067;28;20052;-83
2022/03/14 03:26:28;;;;;;;14.65;7.78;;;;;;;7.70;51.32;102153.16;5017728;28;20284;-83
2022/03/14 03:29:13;;;;;;;11.75;7.53;;;;;;;7.63;51.82;102153.38;5017282;28;20044;-84
2022/03/14 03:31:57;;;;;;;11.50;9.13;;;;;;;7.82;50.68;102158.38;5019032;28;20096;-84
2022/03/14 03:34:42;;;;;;;15.67;6.80;;;;;;;7.94;50.64;102148.13;5022232;28;20052;-84
2022/03/14 03:37:27;;;;;;;9.57;6.35;;;;;;;8.04;49.61;102143.59;5022071;28;20296;-84
2022/03/14 03:40:12;;;;;;;10.65;6.03;;;;;;;8.07;49.60;102148.50;5021938;28;20044;-83
2022/03/14 03:42:57;;;;;;;9.50;5.70;;;;;;;7.92;49.67;102150.31;5022397;28;20057;-83
2022/03/14 03:45:42;;;;;;;9.30;6.32;;;;;;;7.62;50.79;102151.72;5016954;28;20529;-83
2022/03/14 03:48:27;;;;;;;12.10;6.93;;;;;;;7.67;51.14;102157.19;5022220;28;20108;-84
2022/03/14 03:51:12;;;;;;;12.90;7.18;;;;;;;7.57;51.57;102156.28;5022099;28;20049;-83
2022/03/14 03:53:57;;;;;;;16.20;6.82;;;;;;;7.59;52.07;102151.44;5020579;28;20057;-83
2022/03/14 03:56:42;;;;;;;11.07;8.18;;;;;;;7.62;51.69;102157.13;5016061;28;20048;-81
2022/03/14 03:59:26;;;;;;;13.87;8.30;;;;;;;7.60;51.38;102158.50;5021205;28;20057;-82
2022/03/14 04:02:11;;;;;;;9.45;6.65;;;;;;;7.71;50.87;102165.63;5022676;28;20296;-82
2022/03/14 04:04:57;;;;;;;11.18;7.53;;;;;;;7.69;50.88;102168.56;5022979;28;20060;-83
2022/03/14 04:07:43;;;;;;;14.00;8.98;;;;;;;7.47;51.70;102175.97;5020733;28;20060;-82
2022/03/14 04:10:29;;;;;;;12.60;8.13;;;;;;;7.62;52.07;102189.63;5014905;28;20057;-81
2022/03/14 04:13:14;;;;;;;14.20;9.00;;;;;;;7.61;51.01;102190.72;5019009;28;20049;-82
2022/03/14 04:15:59;;;;;;;9.80;7.38;;;;;;;7.62;51.80;102186.91;5015447;28;20529;-83
2022/03/14 04:18:47;;;;;;;13.73;7.28;;;;;;;7.69;52.19;102184.81;5021256;28;20048;-83
2022/03/14 04:21:34;;;;;;;14.13;8.85;;;;;;;7.47;51.69;102188.69;5015312;28;20049;-83
2022/03/14 04:24:19;;;;;;;15.90;9.15;;;;;;;7.53;51.68;102203.91;5020731;28;20069;-84
2022/03/14 04:27:04;;;;;;;9.65;6.80;;;;;;;7.56;51.38;102196.09;5014485;28;20414;-83
2022/03/14 04:29:49;;;;;;;14.82;6.55;;;;;;;7.58;50.87;102191.22;5020753;28;20048;-83
2022/03/14 04:32:34;;;;;;;14.30;6.97;;;;;;;7.57;51.15;102195.00;5020870;28;20045;-84
2022/03/14 04:35:19;;;;;;;9.80;6.55;;;;;;;7.62;50.76;102197.75;5018679;28;20048;-83
2022/03/14 04:38:05;;;;;;;11.50;6.85;;;;;;;7.63;50.56;102207.50;5020989;28;20414;-83
2022/03/14 04:40:50;;;;;;;13.50;8.38;;;;;;;7.46;50.92;102209.56;5021075;28;20053;-85
2022/03/14 04:43:35;;;;;;;11.50;7.60;;;;;;;7.42;51.36;102204.88;5015621;28;20049;-85
2022/03/14 04:46:20;;;;;;;11.25;6.63;;;;;;;7.43;50.97;102218.16;5016829;28;20048;-85
2022/03/14 04:49:07;;;;;;;10.40;6.13;;;;;;;7.52;51.32;102216.63;5021002;28;20675;-85
2022/03/14 04:51:54;;;;;;;14.90;9.43;;;;;;;7.55;51.12;102216.13;5021366;28;20049;-85
2022/03/14 04:54:39;;;;;;;15.05;8.30;;;;;;;7.57;51.33;102223.94;5015856;28;20049;-85
2022/03/14 04:57:24;;;;;;;13.82;8.15;;;;;;;7.61;50.94;102234.03;5021838;28;20048;-86
2022/03/14 05:00:35;;;;;;;10.50;5.68;;;;;;;7.54;50.81;102235.31;5021107;28;20061;-86
2022/03/14 05:03:23;;;;;;;15.52;8.27;;;;;;;7.29;51.63;102234.00;5021311;28;20410;-85
2022/03/14 05:06:08;;;;;;;13.20;7.47;;;;;;;7.26;51.78;102241.81;5015639;28;20049;-84
2022/03/14 05:08:52;;;;;;;15.32;5.82;;;;;;;7.23;51.71;102235.03;5020126;28;20506;-84
2022/03/14 05:11:40;;;;;;;15.43;8.18;;;;;;;7.53;51.40;102239.91;5020875;28;20044;-84
2022/03/14 05:14:25;;;;;;;14.70;7.97;;;;;;;7.48;51.72;102242.56;5023446;28;20048;-84
2022/03/14 05:17:10;;;;;;;10.43;7.88;;;;;;;7.38;51.31;102245.19;5018225;28;20057;-87
2022/03/14 05:19:57;;;;;;;11.27;7.68;;;;;;;7.50;51.08;102253.97;5024436;28;20056;-83
2022/03/14 05:22:48;;;;;;;12.35;7.53;;;;;;;7.42;51.04;102246.28;5015009;28;20053;-83
2022/03/14 05:25:33;;;;;;;13.32;8.07;;;;;;;7.50;50.67;102248.56;5021987;28;20048;-83
2022/03/14 05:28:19;;;;;;;11.13;6.90;;;;;;;7.56;51.10;102261.06;5018622;28;20064;-83
2022/03/14 05:31:04;;;;;;;14.70;7.40;;;;;;;7.47;51.29;102261.75;5019100;28;20053;-81
2022/03/14 05:33:49;;;;;;;11.20;6.32;;;;;;;7.44;51.04;102267.69;5024020;28;20049;-83
2022/03/14 05:36:34;;;;;;;11.23;5.73;;;;;;;7.52;50.46;102259.91;5019199;28;20052;-82
2022/03/14 05:39:19;;;;;;;17.92;8.23;;;;;;;7.42;51.20;102270.66;5023422;28;20048;-82
2022/03/14 05:42:04;;;;;;;14.60;6.90;;;;;;;7.60;50.63;102274.88;5024075;28;20057;-82
2022/03/14 05:44:49;;;;;;;13.02;5.97;;;;;;;7.73;50.50;102271.75;5024403;28;20556;-82
2022/03/14 05:47:34;;;;;;;10.20;5.77;;;;;;;7.66;50.50;102280.09;5019134;28;20049;-82
2022/03/14 05:50:20;;;;;;;12.00;6.35;;;;;;;7.52;50.44;102283.47;5017409;28;20049;-82
2022/03/14 05:53:05;;;;;;;13.13;7.43;;;;;;;7.42;51.03;102284.19;5021490;28;20044;-82
2022/03/14 05:55:49;;;;;;;11.50;7.05;;;;;;;7.71;49.96;102290.97;5019075;28;20049;-81
2022/03/14 05:58:36;;;;;;;30.48;8.13;;;;;;;8.00;49.79;102293.38;5018554;28;20049;-82
2022/03/14 06:01:22;;;;;;;17.25;7.55;;;;;;;8.07;49.18;102288.56;5024355;28;20052;-80
2022/03/14 06:04:06;;;;;;;16.35;7.53;;;;;;;8.27;49.08;102293.31;5019951;28;20427;-81
2022/03/14 06:06:52;;;;;;;8.60;5.70;;;;;;;8.38;48.52;102303.16;5018397;28;20423;-80
2022/03/14 06:09:37;;;;;;;14.00;7.97;;;;;;;8.30;48.41;102303.63;5023971;28;20049;-83
2022/03/14 06:12:24;;;;;;;13.57;6.18;;;;;;;8.36;48.49;102300.72;5020397;28;20609;-84
2022/03/14 06:15:13;;;;;;;16.73;8.70;;;;;;;8.42;48.22;102313.22;5024044;28;20076;-85
2022/03/14 06:17:57;;;;;;;11.27;7.72;;;;;;;8.61;48.26;102307.34;5002584;28;20065;-83
2022/03/14 06:20:42;;;;;;;17.97;8.43;;;;;;;8.72;47.39;102318.00;5017778;28;20057;-81
2022/03/14 06:23:27;;;;;;;10.80;6.70;;;;;;;8.55;48.39;102323.59;5018037;28;20045;-83
2022/03/14 06:26:14;;;;;;;276.98;17.70;;;;;;;9.18;48.09;102332.59;5002690;28;20060;-84
2022/03/14 06:28:59;;;;;;;41.45;9.80;;;;;;;9.21;47.69;102328.50;5011012;28;20428;-82
2022/03/14 06:31:43;;;;;;;14.38;6.93;;;;;;;9.37;47.47;102333.72;5024923;28;20048;-85
2022/03/14 06:34:28;;;;;;;18.83;8.25;;;;;;;9.37;47.38;102335.63;5008785;23;20529;-78
2022/03/14 06:37:13;;;;;;;18.25;9.45;;;;;;;9.32;47.30;102336.44;4987185;28;20053;-77
2022/03/14 06:39:59;;;;;;;24.95;10.20;;;;;;;9.40;46.39;102330.47;4997848;28;20050;-78
2022/03/14 06:42:48;;;;;;;20.15;8.50;;;;;;;9.51;46.04;102333.22;4994273;28;20069;-78
2022/03/14 06:45:34;;;;;;;18.85;9.07;;;;;;;9.40;46.06;102330.47;4992512;28;20045;-76
2022/03/14 06:48:19;;;;;;;11.00;6.82;;;;;;;9.57;44.97;102341.09;4994351;28;20053;-77
2022/03/14 06:51:03;;;;;;;32.65;6.88;;;;;;;9.60;44.47;102335.13;4995415;28;20057;-76
2022/03/14 06:53:48;;;;;;;12.23;5.70;;;;;;;9.66;44.33;102347.63;4994376;28;20041;-76
2022/03/14 06:56:33;;;;;;;13.02;5.97;;;;;;;9.69;44.47;102341.69;4997929;28;20289;-76
2022/03/14 06:59:18;;;;;;;17.58;7.00;;;;;;;9.54;45.32;102346.28;4994078;28;20529;-76
2022/03/14 07:02:03;;;;;;;13.83;8.03;;;;;;;9.78;45.20;102352.81;4993942;28;20053;-76
2022/03/14 07:04:48;;;;;;;18.40;7.50;;;;;;;9.79;44.94;102355.28;4993181;28;20105;-77
2022/03/14 07:07:32;;;;;;;16.02;6.50;;;;;;;9.71;45.20;102363.13;4994698;28;20045;-77
2022/03/14 07:10:17;;;;;;;21.33;8.63;;;;;;;9.56;45.96;102363.09;4994165;28;20053;-76
2022/03/14 07:13:02;;;;;;;18.15;9.30;;;;;;;9.48;45.92;102369.88;4994054;28;20053;-77
2022/03/14 07:15:48;;;;;;;14.27;6.72;;;;;;;9.48;46.20;102369.88;4996191;28;20045;-76
2022/03/14 07:18:34;;;;;;;20.52;7.13;;;;;;;9.59;46.03;102382.41;4994254;28;20410;-77
2022/03/14 07:21:18;;;;;;;39.95;9.57;;;;;;;9.72;45.26;102384.59;4993821;28;20053;-77
2022/03/14 07:24:03;;;;;;;14.55;7.25;;;;;;;9.88;45.08;102383.53;4993670;28;20054;-76
2022/03/14 07:26:48;;;;;;;15.40;8.18;;;;;;;10.28;43.73;102380.06;4994008;28;20053;-77
2022/03/14 07:29:33;;;;;;;24.58;6.32;;;;;;;10.31;43.86;102373.25;4997779;28;20521;-78
2022/03/14 07:32:17;;;;;;;92.00;8.63;;;;;;;10.67;43.54;102383.00;4996441;28;20057;-78
2022/03/14 07:35:02;;;;;;;10.23;5.73;;;;;;;10.63;43.80;102387.38;4994908;28;20053;-77
2022/03/14 07:37:47;;;;;;;12.77;5.88;;;;;;;10.84;43.32;102398.22;4993058;28;20285;-79
2022/03/14 07:40:33;;;;;;;20.05;7.88;;;;;;;10.76;43.56;102402.34;5001546;28;20045;-78
2022/03/14 07:43:18;;;;;;;15.82;8.20;;;;;;;10.59;44.33;102405.34;4994697;28;20058;-79
2022/03/14 07:46:03;;;;;;;11.60;5.32;;;;;;;10.52;44.49;102403.97;4993129;28;20537;-79
2022/03/14 07:48:48;;;;;;;29.98;6.50;;;;;;;10.57;44.41;102409.41;4993172;28;20431;-78
2022/03/14 07:51:32;;;;;;;18.47;8.57;;;;;;;10.51;44.97;102416.78;4994491;28;20053;-78
2022/03/14 07:54:17;;;;;;;15.07;5.97;;;;;;;10.82;44.41;102412.09;4994001;28;20350;-76
2022/03/14 07:57:02;;;;;;;12.60;4.78;;;;;;;11.01;43.40;102410.44;4997356;28;20114;-77
2022/03/14 07:59:47;;;;;;;21.95;6.50;;;;;;;11.08;43.07;102404.69;4995396;28;20053;-80
2022/03/14 08:02:32;;;;;;;;;;;;;;;10.61;44.47;102415.97;4996795;28;20050;-80
2022/03/14 08:05:24;;;;;;;21.38;8.32;;;;;;;10.49;45.74;102415.41;4994882;28;19914;-81
2022/03/14 08:08:08;;;;;;;24.40;7.80;;;;;;;10.39;45.14;102420.84;4988428;28;20092;-79
2022/03/14 08:10:54;;;;;;;22.77;6.03;;;;;;;10.40;45.22;102425.22;5010049;28;20419;-78
2022/03/14 08:13:39;;;;;;;14.45;6.55;;;;;;;10.53;44.00;102425.47;4997859;28;20053;-78
2022/03/14 08:16:24;;;;;;;11.45;6.50;;;;;;;10.33;44.85;102425.47;4997453;28;20049;-80
2022/03/14 08:19:10;;;;;;;20.95;8.10;;;;;;;10.55;45.15;102434.19;4988990;28;20049;-81
2022/03/14 08:21:57;;;;;;;22.95;5.65;;;;;;;11.04;42.58;102431.66;4986421;28;20045;-75
2022/03/14 08:24:41;;;;;;;11.75;8.05;;;;;;;11.30;42.11;102439.75;4992298;28;20077;-76
2022/03/14 08:27:26;;;;;;;19.13;8.13;;;;;;;11.50;41.78;102442.41;4989410;28;20053;-74
2022/03/14 08:30:11;;;;;;;12.20;5.88;;;;;;;11.60;40.55;102445.06;4994661;28;20065;-74
2022/03/14 08:32:57;;;;;;;22.98;7.32;;;;;;;11.75;40.47;102453.22;5015025;28;20057;-76
2022/03/14 08:35:44;;;;;;;11.82;6.85;;;;;;;11.95;39.94;102450.38;4992016;28;20253;-76
2022/03/14 08:38:28;;;;;;;21.63;5.95;;;;;;;11.98;40.11;102452.56;4995994;28;20427;-76
2022/03/14 08:41:16;;;;;;;14.80;5.35;;;;;;;11.99;39.20;102454.16;4991924;28;20044;-76
2022/03/14 08:44:00;;;;;;;12.02;5.78;;;;;;;12.15;38.96;102452.16;4992942;28;20053;-74
2022/03/14 08:46:45;;;;;;;16.20;5.80;;;;;;;12.19;38.46;102445.03;4992105;28;20049;-74
2022/03/14 08:49:29;;;;;;;7.13;4.75;;;;;;;12.40;38.38;102442.97;4993500;28;20530;-75
2022/03/14 08:52:14;;;;;;;5.53;3.42;;;;;;;12.48;38.21;102441.56;4992470;28;20061;-75
2022/03/14 08:54:59;;;;;;;6.95;4.65;;;;;;;12.24;38.78;102434.06;4990236;28;20053;-76
2022/03/14 08:57:46;;;;;;;15.23;8.88;;;;;;;12.36;38.47;102441.91;5001138;28;20053;-76
2022/03/14 09:00:31;;;;;;;10.70;5.28;;;;;;;12.41;38.68;102439.97;4992006;28;20127;-76
2022/03/14 09:03:15;;;;;;;11.05;5.25;;;;;;;12.56;37.79;102441.75;4996451;28;20054;-76
2022/03/14 09:06:00;;;;;;;5.38;3.53;;;;;;;12.52;37.77;102442.59;4991769;28;20065;-76
2022/03/14 09:08:45;;;;;;;7.22;3.45;;;;;;;12.60;38.19;102452.88;4978451;28;20049;-77
2022/03/14 09:11:30;;;;;;;7.38;3.55;;;;;;;12.58;37.72;102452.38;4990119;28;20053;-76
2022/03/14 09:14:15;;;;;;;17.40;4.93;;;;;;;12.65;37.72;102448.19;4991523;28;20053;-76
2022/03/14 09:17:00;;;;;;;8.15;4.00;;;;;;;12.54;38.35;102454.88;4991888;28;20046;-76
2022/03/14 09:19:48;;;;;;;27.70;5.35;;;;;;;12.77;37.86;102448.66;4991517;28;20049;-75
2022/03/14 09:22:33;;;;;;;10.07;5.53;;;;;;;13.26;36.39;102462.09;4991908;28;20046;-77
2022/03/14 09:25:20;;;;;;;8.02;4.38;;;;;;;13.78;36.09;102454.91;4991576;28;20053;-75
2022/03/14 09:28:05;;;;;;;24.50;7.85;;;;;;;13.89;35.42;102469.25;4990946;28;20422;-80
2022/03/14 09:30:50;;;;;;;30.33;6.25;;;;;;;14.01;35.28;102469.63;4994833;28;20050;-76
2022/03/14 09:33:35;;;;;;;11.90;6.07;;;;;;;14.24;34.46;102476.94;4988216;28;20045;-76
2022/03/14 09:36:20;;;;;;;7.05;4.03;;;;;;;13.93;35.33;102473.03;4986039;28;20045;-76
2022/03/14 09:39:05;;;;;;;16.88;5.00;;;;;;;13.77;35.60;102488.81;4991026;28;20423;-76
2022/03/14 09:41:53;;;;;;;10.85;5.55;;;;;;;13.86;35.36;102478.06;4984784;28;20096;-77
2022/03/14 09:44:42;;;;;;;26.35;5.78;;;;;;;14.06;35.22;102483.25;4990448;28;20045;-76
2022/03/14 09:47:28;;;;;;;8.70;5.45;;;;;;;14.05;35.03;102484.34;4986895;28;20614;-76
2022/03/14 09:50:34;;;;;;;15.55;6.70;;;;;;;13.88;36.28;102497.69;4973240;28;20058;-76
2022/03/14 09:53:19;;;;;;;20.02;6.38;;;;;;;13.88;36.26;102486.75;4972161;28;20054;-76
2022/03/14 09:56:04;;;;;;;8.90;4.97;;;;;;;14.01;36.26;102486.88;4975034;28;20411;-75
2022/03/14 09:58:49;;;;;;;8.65;5.88;;;;;;;14.08;36.67;102484.56;4972406;28;20053;-76
2022/03/14 10:01:35;;;;;;;14.48;6.43;;;;;;;13.55;37.80;102494.84;4975196;28;20115;-76
2022/03/14 10:04:20;;;;;;;12.05;6.50;;;;;;;13.41;38.10;102495.84;4975637;28;20424;-76
2022/03/14 10:07:06;;;;;;;8.90;5.95;;;;;;;13.47;37.83;102495.47;4976396;28;20058;-75
2022/03/14 10:09:51;;;;;;;11.45;5.97;;;;;;;13.52;37.13;102500.88;4975786;28;20408;-75
2022/03/14 10:12:36;;;;;;;10.85;7.18;;;;;;;13.61;37.74;102509.28;4975395;28;20050;-75
2022/03/14 10:15:22;;;;;;;;;;;;;;;14.09;37.01;102499.88;4977843;28;20739;-77
2022/03/14 10:18:11;;;;;;;;;;;;;;;14.16;36.77;102495.97;4975177;28;19925;-77
2022/03/14 10:21:08;;;;;;;11.23;6.50;;;;;;;13.96;37.25;102502.53;4979077;28;19918;-77
2022/03/14 10:23:54;;;;;;;9.60;6.30;;;;;;;14.22;36.93;102494.78;4975180;28;20050;-77
2022/03/14 10:26:41;;;;;;;15.57;6.45;;;;;;;14.14;35.66;102480.66;4975976;28;20069;-78
2022/03/14 10:29:27;;;;;;;10.70;6.82;;;;;;;14.09;36.07;102478.00;4975776;28;20415;-77
2022/03/14 10:32:19;;;;;;;9.63;6.70;;;;;;;14.29;36.13;102467.84;4976333;28;20041;-76
2022/03/14 10:35:07;;;;;;;14.63;6.80;;;;;;;14.07;36.82;102466.50;4975818;28;20460;-77
2022/03/14 10:38:02;;;;;;;15.43;6.18;;;;;;;13.86;35.56;102469.84;4977955;28;20345;-76
2022/03/14 10:40:47;;;;;;;7.60;4.95;;;;;;;14.16;35.06;102472.16;4995505;28;20049;-76
2022/03/14 10:43:37;;;;;;;9.60;5.65;;;;;;;14.18;35.11;102471.84;4992539;28;20061;-77
2022/03/14 10:46:26;;;;;;;11.23;6.65;;;;;;;14.72;34.74;102472.09;4997057;28;20042;-76
2022/03/14 10:49:11;;;;;;;12.82;7.13;;;;;;;14.86;34.05;102483.09;4994231;28;20529;-78
2022/03/14 10:51:59;;;;;;;13.50;6.72;;;;;;;15.18;33.45;102477.56;4986412;28;20053;-75
2022/03/14 10:54:44;;;;;;;16.13;7.68;;;;;;;15.26;32.35;102478.78;4994106;28;20045;-77
2022/03/14 10:57:30;;;;;;;8.88;6.30;;;;;;;14.73;34.15;102478.41;4994095;28;20069;-77
2022/03/14 11:00:15;;;;;;;50.92;8.50;;;;;;;14.97;33.97;102471.66;4993391;28;20077;-75
2022/03/14 11:03:03;;;;;;;16.00;6.38;;;;;;;15.64;32.72;102479.44;4991714;28;20045;-76
2022/03/14 11:05:48;;;;;;;12.70;7.85;;;;;;;15.47;32.51;102468.22;5006047;28;20054;-76
2022/03/14 11:08:35;;;;;;;11.98;7.55;;;;;;;16.35;31.49;102475.91;5007612;28;20053;-78
2022/03/14 11:11:22;;;;;;;19.33;7.53;;;;;;;15.90;31.14;102469.53;4994456;28;20068;-77
2022/03/14 11:14:13;;;;;;;13.60;7.65;;;;;;;16.12;31.00;102471.50;4993497;28;20521;-76
2022/03/14 11:17:10;;;;;;;12.23;7.18;;;;;;;15.52;31.98;102458.00;5003666;28;20521;-76
2022/03/14 11:19:58;;;;;;;13.25;9.65;;;;;;;15.50;32.41;102459.38;4993645;28;20052;-77
2022/03/14 11:22:43;;;;;;;12.75;7.50;;;;;;;15.99;31.09;102450.41;4991956;28;20415;-76
2022/03/14 11:25:29;;;;;;;12.10;7.68;;;;;;;16.77;30.01;102449.88;4996395;28;20069;-76
2022/03/14 11:28:20;;;;;;;23.00;5.55;;;;;;;17.61;28.83;102444.28;4994586;28;20049;-76
2022/03/14 11:31:09;;;;;;;9.50;7.25;;;;;;;17.57;28.66;102439.69;4995599;28;20041;-77
2022/03/14 11:33:55;;;;;;;24.17;7.80;;;;;;;16.89;29.26;102446.56;4995763;28;20378;-76
2022/03/14 11:36:40;;;;;;;13.23;7.43;;;;;;;16.65;29.40;102455.16;4994613;28;20049;-76
2022/03/14 11:39:27;;;;;;;9.93;6.70;;;;;;;16.98;29.23;102441.91;4990565;28;20049;-76
2022/03/14 11:42:15;;;;;;;19.50;6.45;;;;;;;17.21;29.26;102442.66;4993163;28;20041;-76
2022/03/14 11:45:03;;;;;;;8.80;6.20;;;;;;;16.58;30.67;102443.75;4988558;28;20588;-76
2022/03/14 11:47:51;;;;;;;10.23;5.90;;;;;;;17.11;29.27;102443.75;4997844;28;20049;-76
2022/03/14 11:50:48;;;;;;;8.93;6.03;;;;;;;18.07;27.73;102435.41;4987569;28;20057;-76
2022/03/14 11:53:46;;;;;;;9.75;6.03;;;;;;;17.41;28.29;102431.09;4992648;28;20041;-76
2022/03/14 11:56:38;;;;;;;13.68;7.25;;;;;;;16.82;28.90;102425.00;4992598;28;20045;-76
2022/03/14 11:59:27;;;;;;;12.98;7.25;;;;;;;16.92;28.70;102419.25;4993887;28;20046;-77
2022/03/14 12:02:12;;;;;;;14.07;6.60;;;;;;;16.61;29.25;102413.75;4986107;28;20057;-76
2022/03/14 12:05:03;;;;;;;10.82;6.15;;;;;;;16.94;29.13;102413.44;4989228;28;20045;-77
2022/03/14 12:07:48;;;;;;;10.93;6.82;;;;;;;17.63;27.52;102406.22;4993207;28;20414;-76
2022/03/14 12:10:36;;;;;;;6.57;4.88;;;;;;;17.73;27.18;102405.91;5003356;28;20057;-77
2022/03/14 12:13:42;;;;;;;8.48;6.40;;;;;;;18.03;27.14;102401.38;4996587;28;20089;-76
2022/03/14 12:16:37;;;;;;;9.90;5.30;;;;;;;18.06;27.05;102392.50;4993366;28;20066;-76
2022/03/14 12:19:38;;;;;;;7.50;5.25;;;;;;;18.73;26.23;102389.97;4995661;28;20045;-76
2022/03/14 12:22:28;;;;;;;52.63;9.23;;;;;;;18.61;26.80;102392.59;4991842;28;20069;-77
2022/03/14 12:25:34;;;;;;;18.52;7.28;;;;;;;19.20;25.94;102387.16;4992111;28;20049;-76
2022/03/14 12:28:26;;;;;;;10.23;6.60;;;;;;;19.79;24.72;102376.09;4991612;28;20045;-76
2022/03/14 12:31:14;;;;;;;12.25;7.30;;;;;;;20.39;24.13;102378.31;4989689;28;20045;-76
2022/03/14 12:34:10;;;;;;;12.20;6.10;;;;;;;20.92;23.17;102380.16;4991008;28;20053;-76
2022/03/14 12:36:54;;;;;;;10.35;7.25;;;;;;;19.31;25.09;102374.59;4992976;28;20054;-77
2022/03/14 12:39:39;;;;;;;12.27;6.75;;;;;;;18.29;26.47;102373.81;4992019;28;20058;-77
2022/03/14 12:42:25;;;;;;;;;;;;;;;18.51;26.33;102376.38;5010705;28;20053;-76
2022/03/14 12:45:14;;;;;;;9.32;6.95;;;;;;;18.11;26.62;102372.25;4992593;28;19913;-77
2022/03/14 12:48:05;;;;;;;9.77;7.43;;;;;;;18.21;26.79;102367.22;5005906;28;20510;-77
2022/03/14 12:50:50;;;;;;;10.50;7.43;;;;;;;17.41;28.13;102376.91;5009412;28;20118;-77
2022/03/14 12:53:35;;;;;;;14.05;5.68;;;;;;;17.79;28.27;102382.63;5000593;28;20049;-79